NZQN/ZQN METAR and TAF weather

Enter ICAO airport designator
Station Type Date Time Source
NZQN METAR UTC NOAA

Error!


Station Type Date Time Source
NZQN Decoded METAR UTC NOAA

Error!

Station Type Date Time Source
NZQN TAF 2020/08/10 18:04 UTC NOAA

TAF NZQN 101704Z 1018/1112 02005KT 9999 SKC
BECMG 1022/1100 24010KT

Example: see airport list